createdAt,value
2023-07-25T10:38:44.995Z,98788.9
2023-07-25T10:44:20.284Z,98809
2023-07-25T10:49:56.098Z,98805.8
2023-07-25T10:55:32.808Z,98808.5
2023-07-25T11:01:08.994Z,98803.8
2023-07-25T11:06:46.004Z,98803.8
2023-07-25T11:12:21.281Z,98819.8
2023-07-25T11:17:57.279Z,98825
2023-07-25T11:23:33.147Z,98829.5
2023-07-25T11:29:08.846Z,98830.9
2023-07-25T11:34:44.503Z,98831.9
2023-07-25T11:40:22.062Z,98840.1
2023-07-25T11:45:58.901Z,98842.1
2023-07-25T11:51:35.453Z,98826.3
2023-07-25T11:57:13.974Z,98838.1
2023-07-25T12:02:51.468Z,98833.8
2023-07-25T12:08:28.615Z,98834.5
2023-07-25T12:14:05.008Z,98837.7
2023-07-25T12:19:39.594Z,98833.8
2023-07-25T12:25:15.455Z,98825.5
2023-07-25T12:30:51.734Z,98826.6
2023-07-25T12:36:27.848Z,98817.7
2023-07-25T12:42:05.724Z,98814.5
2023-07-25T12:47:45.851Z,98818.6
2023-07-25T12:53:21.748Z,98813.2
2023-07-25T12:58:57.157Z,98816.7
2023-07-25T13:04:34.285Z,98811.6
2023-07-25T13:10:11.182Z,98810.3
2023-07-25T13:15:47.575Z,98796.8
2023-07-25T13:21:23.666Z,98785.9
2023-07-25T13:27:00.956Z,98770.2
2023-07-25T13:32:37.875Z,98775.6
2023-07-25T13:38:14.328Z,98764.4
2023-07-25T13:43:51.049Z,98766.3
2023-07-25T13:49:26.130Z,98763.7
2023-07-25T13:55:01.609Z,98771.2
2023-07-25T14:00:37.660Z,98774.9
2023-07-25T14:06:13.818Z,98795.5
2023-07-25T14:11:49.799Z,98817.3
2023-07-25T14:17:26.050Z,98807.8
2023-07-25T14:23:02.109Z,98816.1
2023-07-25T14:28:38.371Z,98830.8
2023-07-25T14:34:15.239Z,98829.5
2023-07-25T14:39:51.849Z,98830.1
2023-07-25T14:45:27.847Z,98835.5
2023-07-25T14:51:04.654Z,98839.8
2023-07-25T14:56:41.030Z,98843.2
2023-07-25T15:02:19.318Z,98843.2
2023-07-25T15:07:55.080Z,98847.4
2023-07-25T15:13:31.419Z,98846
2023-07-25T15:19:06.888Z,98850.6
2023-07-25T15:24:43.044Z,98842.9
2023-07-25T15:30:19.315Z,98856.4
2023-07-25T15:35:55.152Z,98858.4
2023-07-25T15:41:31.954Z,98851.4
2023-07-25T15:47:10.233Z,98848.4
2023-07-25T15:52:45.535Z,98851.8
2023-07-25T15:58:21.025Z,98858.9
2023-07-25T16:03:56.800Z,98865
2023-07-25T16:09:32.812Z,98866.1
2023-07-25T16:15:09.229Z,98865
2023-07-25T16:20:45.722Z,98868.8
2023-07-25T16:26:21.318Z,98864.2
2023-07-25T16:31:57.880Z,98864.1
2023-07-25T16:37:33.933Z,98870.4
2023-07-25T16:43:09.542Z,98869.7
2023-07-25T16:48:45.059Z,98874.9
2023-07-25T16:54:21.478Z,98874
2023-07-25T16:59:57.472Z,98878.1
2023-07-25T17:05:33.377Z,98875.1
2023-07-25T17:11:08.766Z,98873.8
2023-07-25T17:16:44.218Z,98869.7
2023-07-25T17:22:19.858Z,98868.1
2023-07-25T17:27:56.793Z,98870.4
2023-07-25T17:33:32.567Z,98875.5
2023-07-25T17:39:08.016Z,98873.5
2023-07-25T17:44:43.570Z,98873.8
2023-07-25T17:50:19.486Z,98877.3
2023-07-25T17:55:55.085Z,98882.1
2023-07-25T18:01:32.858Z,98895
2023-07-25T18:07:10.917Z,98907.9
2023-07-25T18:12:46.418Z,98919.2
2023-07-25T18:18:22.403Z,98930.4
2023-07-25T18:23:58.537Z,98934.6
2023-07-25T18:29:34.607Z,98946.4
2023-07-25T18:35:11.010Z,98960.4
2023-07-25T18:40:46.645Z,98968.2
2023-07-25T18:46:22.645Z,98983
2023-07-25T18:51:59.468Z,98984.5
2023-07-25T18:57:35.036Z,98984.4
2023-07-25T19:03:11.082Z,98987.2
2023-07-25T19:08:48.007Z,98983.8
2023-07-25T19:14:23.801Z,98982.4
2023-07-25T19:20:00.023Z,98984
2023-07-25T19:25:35.630Z,98986.6
2023-07-25T19:31:11.588Z,98981
2023-07-25T19:36:47.350Z,98967.1
2023-07-25T19:42:23.171Z,98965.4
2023-07-25T19:47:59.190Z,98971.6
2023-07-25T19:53:34.962Z,98980.2
2023-07-25T19:59:11.361Z,98989.1
2023-07-25T20:04:47.114Z,98979.5
2023-07-25T20:10:22.813Z,98979.9
2023-07-25T20:15:59.466Z,98988.2
2023-07-25T20:21:35.257Z,98996
2023-07-25T20:27:11.589Z,99003
2023-07-25T20:32:48.312Z,99015.6
2023-07-25T20:38:24.844Z,99021.5
2023-07-25T20:44:01.242Z,99020.2
2023-07-25T20:49:37.617Z,99016.1
2023-07-25T20:55:13.383Z,99002.6
2023-07-25T21:00:48.875Z,99004.8
2023-07-25T21:06:24.935Z,99008.9
2023-07-25T21:12:01.632Z,99005.7
2023-07-25T21:17:37.788Z,99011.1
2023-07-25T21:23:14.412Z,99013.9
2023-07-25T21:28:50.412Z,99014.3
2023-07-25T21:34:26.812Z,99007.8
2023-07-25T21:40:02.564Z,99010.6
2023-07-25T21:45:38.027Z,99011.4
2023-07-25T21:51:13.264Z,99009.6
2023-07-25T21:56:51.845Z,99004.9
2023-07-25T22:02:30.616Z,99003.3
2023-07-25T22:08:07.374Z,99004.1
2023-07-25T22:13:43.132Z,98997.2
2023-07-25T22:19:18.344Z,98991.5
2023-07-25T22:24:53.856Z,98996
2023-07-25T22:30:29.421Z,98998
2023-07-25T22:36:04.285Z,98997.6
2023-07-25T22:41:39.884Z,98995.7
2023-07-25T22:47:15.158Z,98997.8
2023-07-25T22:52:49.832Z,98993.2
2023-07-25T22:58:25.853Z,98988.5
2023-07-25T23:04:00.632Z,98990
2023-07-25T23:09:36.006Z,98983.7
2023-07-25T23:15:11.132Z,98981.2
2023-07-25T23:20:47.032Z,98980.8
2023-07-25T23:26:22.805Z,98983
2023-07-25T23:31:58.321Z,98988
2023-07-25T23:37:34.135Z,98989.6
2023-07-25T23:43:10.703Z,98993.5
2023-07-25T23:48:46.429Z,98991.2
2023-07-25T23:54:23.119Z,98987
2023-07-25T23:59:59.489Z,98977.5
